Time;durP1;ratioP1;P1;durP2;ratioP2;P2;SDS_P1;SDS_P2;PMS_P1;PMS_P2;Temp;Humidity;BMP_temperature;BMP_pressure;BME280_temperature;BME280_humidity;BME280_pressure;Samples;Min_cycle;Max_cycle;Signal;HPM_P1;HPM_P2
2024/01/22 00:07:29;;;;;;;10.63;4.70;;;9.20;38.60;;;;;;20677111;28;20038;-39
2024/01/22 00:17:29;;;;;;;7.47;4.72;;;9.30;33.60;;;;;;20664844;28;20053;-40
2024/01/22 00:27:30;;;;;;;13.75;5.20;;;9.40;31.20;;;;;;20656550;28;20089;-40
2024/01/22 00:37:30;;;;;;;9.13;4.67;;;9.50;25.30;;;;;;20658738;28;20050;-40
2024/01/22 00:47:31;;;;;;;7.30;4.35;;;9.60;22.30;;;;;;20655513;28;20465;-40
2024/01/22 00:57:32;;;;;;;6.87;4.00;;;9.70;21.10;;;;;;20660158;28;20056;-39
2024/01/22 01:07:32;;;;;;;8.45;4.35;;;9.70;25.50;;;;;;20648719;28;20509;-40
2024/01/22 01:17:33;;;;;;;7.47;3.65;;;9.70;32.00;;;;;;20660476;28;20050;-39
2024/01/22 01:27:33;;;;;;;7.97;4.00;;;9.60;45.80;;;;;;20650166;28;20042;-39
2024/01/22 01:37:34;;;;;;;6.63;4.05;;;9.50;74.50;;;;;;20670184;28;20092;-39
2024/01/22 01:47:35;;;;;;;9.50;3.63;;;9.40;95.00;;;;;;20682811;28;20042;-40
2024/01/22 01:57:39;;;;;;;12.75;3.50;;;9.50;97.60;;;;;;20678058;28;20998;-40
2024/01/22 02:07:39;;;;;;;5.82;2.53;;;9.80;91.00;;;;;;20681704;28;20396;-39
2024/01/22 02:17:40;;;;;;;6.80;2.28;;;10.00;92.20;;;;;;20681757;28;20042;-40
2024/01/22 02:27:40;;;;;;;6.65;2.13;;;10.20;90.00;;;;;;20683685;28;20034;-39
2024/01/22 02:37:41;;;;;;;5.00;2.13;;;10.20;99.80;;;;;;20683416;28;20147;-39
2024/01/22 02:47:42;;;;;;;4.78;2.08;;;10.10;99.90;;;;;;20670491;28;20038;-40
2024/01/22 02:57:43;;;;;;;4.38;2.00;;;10.00;99.90;;;;;;20657229;28;20104;-41
2024/01/22 03:07:44;;;;;;;4.67;1.70;;;10.10;99.90;;;;;;20654789;28;20034;-41
2024/01/22 03:17:44;;;;;;;3.25;1.40;;;10.30;99.90;;;;;;20652428;28;20045;-40
2024/01/22 03:27:45;;;;;;;2.95;1.42;;;10.60;99.90;;;;;;20654371;28;20137;-40
2024/01/22 03:37:45;;;;;;;3.00;1.17;;;10.70;99.90;;;;;;20657276;28;20143;-41
2024/01/22 03:47:46;;;;;;;3.80;1.23;;;11.00;99.90;;;;;;20654054;28;20038;-40
2024/01/22 03:57:47;;;;;;;3.10;1.00;;;11.10;99.90;;;;;;20654740;28;20054;-40
2024/01/22 04:07:47;;;;;;;2.28;1.23;;;11.20;99.90;;;;;;20654856;28;20038;-40
2024/01/22 04:17:48;;;;;;;3.47;1.00;;;11.40;96.90;;;;;;20655756;28;20049;-40
2024/01/22 04:27:48;;;;;;;2.13;1.00;;;11.50;90.10;;;;;;20656634;28;20069;-40
2024/01/22 04:37:49;;;;;;;1.63;0.75;;;11.50;80.70;;;;;;20648459;28;20050;-40
2024/01/22 04:47:49;;;;;;;1.63;0.80;;;11.60;84.40;;;;;;20657037;28;20050;-40
2024/01/22 04:57:50;;;;;;;2.78;0.68;;;11.70;87.70;;;;;;20643497;28;20505;-40
2024/01/22 05:07:51;;;;;;;2.07;0.80;;;11.60;99.90;;;;;;20646138;28;20072;-41
2024/01/22 05:17:51;;;;;;;2.10;0.82;;;11.50;99.90;;;;;;20646294;28;20045;-40
2024/01/22 05:27:52;;;;;;;2.20;0.82;;;11.40;99.90;;;;;;20644043;28;20116;-40
2024/01/22 05:37:52;;;;;;;5.10;1.30;;;11.30;99.90;;;;;;20650701;28;20505;-40
2024/01/22 05:47:53;;;;;;;4.68;1.58;;;11.30;99.90;;;;;;20650453;28;20097;-40
2024/01/22 05:57:54;;;;;;;7.65;1.70;;;11.30;99.90;;;;;;20649887;28;20069;-40
2024/01/22 06:07:55;;;;;;;6.43;1.35;;;11.50;99.90;;;;;;20644429;28;20103;-40
2024/01/22 06:17:55;;;;;;;9.25;1.60;;;11.60;99.90;;;;;;20645587;28;20038;-40
2024/01/22 06:27:56;;;;;;;12.13;1.77;;;11.60;99.90;;;;;;20662893;28;20057;-40
2024/01/22 06:37:57;;;;;;;9.13;2.58;;;11.60;99.90;;;;;;20660421;28;20049;-40
2024/01/22 06:47:58;;;;;;;7.78;1.60;;;11.60;98.70;;;;;;20666082;28;20046;-40
2024/01/22 06:58:00;;;;;;;7.85;1.52;;;11.50;99.90;;;;;;20662772;28;20042;-39
2024/01/22 07:08:00;;;;;;;10.60;2.05;;;11.70;97.10;;;;;;20657730;28;20038;-41
2024/01/22 07:18:02;;;;;;;20.17;2.40;;;11.60;92.50;;;;;;20675544;28;20080;-40
2024/01/22 07:28:03;;;;;;;29.85;3.95;;;11.80;79.30;;;;;;20666806;28;20444;-40
2024/01/22 07:38:05;;;;;;;35.53;5.28;;;11.90;55.80;;;;;;20678800;28;20132;-40
2024/01/22 07:48:06;;;;;;;40.47;5.10;;;12.10;37.40;;;;;;20667562;28;20141;-40
2024/01/22 07:58:07;;;;;;;33.35;5.03;;;12.30;24.90;;;;;;20679819;28;20052;-40
2024/01/22 08:08:11;;;;;;;23.95;4.75;;;12.20;35.30;;;;;;20672450;28;20038;-40
2024/01/22 08:18:12;;;;;;;46.63;10.35;;;11.80;82.60;;;;;;20669474;28;20046;-40
2024/01/22 08:28:12;;;;;;;30.95;5.05;;;11.60;99.90;;;;;;20667443;28;20053;-40
2024/01/22 08:38:13;;;;;;;23.38;4.25;;;11.40;99.90;;;;;;20673279;28;20513;-40
2024/01/22 08:48:13;;;;;;;31.38;5.00;;;11.20;99.90;;;;;;20671412;28;20034;-40
2024/01/22 08:58:15;;;;;;;37.35;5.43;;;11.10;99.90;;;;;;20672833;28;20133;-40
2024/01/22 09:08:16;;;;;;;34.00;5.68;;;11.10;99.90;;;;;;20675319;28;20040;-40
2024/01/22 09:18:16;;;;;;;42.83;5.95;;;11.00;99.90;;;;;;20671274;28;20042;-40
2024/01/22 09:28:19;;;;;;;36.55;5.47;;;10.80;95.00;;;;;;20668766;28;20035;-40
2024/01/22 09:38:21;;;;;;;35.33;4.97;;;10.60;97.60;;;;;;20666933;28;20061;-40
2024/01/22 09:48:23;;;;;;;24.98;4.63;;;10.40;85.50;;;;;;20673489;28;20038;-40
2024/01/22 09:58:34;;;;;;;26.08;4.25;;;10.40;81.20;;;;;;20682256;28;20095;-40
2024/01/22 10:08:34;;;;;;;22.98;3.50;;;10.30;63.90;;;;;;20688991;28;20042;-40
2024/01/22 10:18:36;;;;;;;21.70;3.92;;;10.30;48.10;;;;;;20682943;28;20040;-40
2024/01/22 10:28:36;;;;;;;22.45;4.00;;;10.40;39.90;;;;;;20683303;28;20045;-40
2024/01/22 10:38:37;;;;;;;21.30;3.80;;;10.50;33.40;;;;;;20683031;28;20042;-41
2024/01/22 10:48:38;;;;;;;22.83;3.45;;;10.70;29.60;;;;;;20674894;28;20175;-40
2024/01/22 10:58:43;;;;;;;20.08;4.20;;;11.10;17.60;;;;;;20674328;28;20271;-41
2024/01/22 11:08:49;;;;;;;22.63;3.67;;;11.30;1.00;;;;;;20678621;28;20057;-41
2024/01/22 11:19:00;;;;;;;20.50;2.95;;;11.40;1.00;;;;;;20675763;28;20456;-40
2024/01/22 11:29:08;;;;;;;24.27;3.50;;;11.60;1.00;;;;;;20675489;28;20092;-41
2024/01/22 11:39:08;;;;;;;21.58;2.65;;;12.00;1.00;;;;;;20679761;28;20551;-41
2024/01/22 11:49:09;;;;;;;15.77;4.13;;;12.30;1.00;;;;;;20673813;28;20501;-41
2024/01/22 11:59:10;;;;;;;21.77;3.45;;;12.40;1.00;;;;;;20674664;28;20476;-41
2024/01/22 12:09:11;;;;;;;15.38;2.75;;;12.60;1.00;;;;;;20674426;28;20038;-40
2024/01/22 12:19:12;;;;;;;19.50;3.00;;;12.70;1.00;;;;;;20669237;28;20076;-41
2024/01/22 12:29:25;;;;;;;22.23;3.40;;;12.70;1.00;;;;;;20670137;28;20438;-40
2024/01/22 12:39:25;;;;;;;16.65;2.95;;;12.60;1.00;;;;;;20669186;28;20511;-41
2024/01/22 12:49:26;;;;;;;19.38;3.30;;;12.60;1.00;;;;;;20667525;28;20030;-41
2024/01/22 12:59:26;;;;;;;21.33;4.38;;;12.30;1.00;;;;;;20664499;28;20386;-40
2024/01/22 13:09:27;;;;;;;18.15;3.97;;;12.60;1.00;;;;;;20669392;28;20610;-41
2024/01/22 13:19:28;;;;;;;22.65;3.58;;;12.40;1.00;;;;;;20667418;28;20037;-40
2024/01/22 13:29:28;;;;;;;23.15;3.60;;;12.20;1.00;;;;;;20666128;28;20040;-42
2024/01/22 13:39:29;;;;;;;22.77;3.03;;;12.20;1.00;;;;;;20655823;28;20097;-41
2024/01/22 13:49:29;;;;;;;26.13;3.97;;;12.20;1.00;;;;;;20653705;28;20537;-40
2024/01/22 13:59:30;;;;;;;25.77;4.60;;;12.00;1.00;;;;;;20658808;28;20044;-40
2024/01/22 14:09:31;;;;;;;19.70;3.97;;;11.70;1.00;;;;;;20655598;28;20584;-40
2024/01/22 14:19:32;;;;;;;21.92;4.18;;;11.50;1.00;;;;;;20647891;28;20402;-40
2024/01/22 14:29:32;;;;;;;22.63;3.53;;;11.40;1.00;;;;;;20652571;28;20393;-41
2024/01/22 14:39:33;;;;;;;20.87;3.20;;;11.30;1.00;;;;;;20645016;28;20068;-40
2024/01/22 14:49:34;;;;;;;15.80;3.00;;;11.30;1.00;;;;;;20651830;28;20469;-40
2024/01/22 14:59:35;;;;;;;20.70;3.17;;;11.20;1.00;;;;;;20660827;28;20441;-40
2024/01/22 15:09:38;;;;;;;22.08;4.07;;;11.20;1.00;;;;;;20653082;28;20038;-40
2024/01/22 15:19:39;;;;;;;24.55;4.25;;;11.00;1.00;;;;;;20650684;28;20048;-40
2024/01/22 15:29:39;;;;;;;21.55;3.30;;;10.70;1.00;;;;;;20658314;28;20030;-40
2024/01/22 15:39:44;;;;;;;29.00;5.13;;;10.50;1.00;;;;;;20655655;28;20149;-40
2024/01/22 15:49:45;;;;;;;24.45;3.97;;;10.40;1.00;;;;;;20662273;28;20306;-40
2024/01/22 15:59:46;;;;;;;28.07;4.10;;;10.30;1.00;;;;;;20652066;28;20034;-40
2024/01/22 16:09:46;;;;;;;22.17;3.15;;;10.10;1.00;;;;;;20651777;28;20026;-40
2024/01/22 16:19:47;;;;;;;27.17;3.22;;;10.00;1.00;;;;;;20647339;28;20034;-40
2024/01/22 16:29:50;;;;;;;19.83;2.97;;;9.90;1.00;;;;;;20647346;28;20057;-40
2024/01/22 16:39:51;;;;;;;22.08;3.30;;;9.70;1.00;;;;;;20651909;28;20034;-40
2024/01/22 16:49:53;;;;;;;22.50;4.30;;;9.60;1.00;;;;;;20647469;28;20030;-40
2024/01/22 16:59:54;;;;;;;20.83;3.22;;;9.60;1.00;;;;;;20645312;28;20030;-40
2024/01/22 17:09:54;;;;;;;28.15;3.97;;;9.60;1.00;;;;;;20666033;28;20031;-40
2024/01/22 17:19:55;;;;;;;26.70;3.90;;;9.70;1.00;;;;;;20669777;28;20407;-41
2024/01/22 17:29:56;;;;;;;19.00;3.90;;;9.70;1.00;;;;;;20650264;28;20479;-39
2024/01/22 17:39:58;;;;;;;26.27;4.37;;;9.80;1.00;;;;;;20653093;28;20064;-39
2024/01/22 17:49:59;;;;;;;23.90;3.70;;;9.70;1.00;;;;;;20662720;28;20045;-39
2024/01/22 18:00:03;;;;;;;18.88;4.10;;;9.50;1.00;;;;;;20654886;28;20042;-39
2024/01/22 18:10:04;;;;;;;29.35;3.90;;;9.50;1.00;;;;;;20607840;28;20046;-41
2024/01/22 18:20:07;;;;;;;22.20;3.25;;;9.40;1.00;;;;;;20659234;28;20039;-39
2024/01/22 18:30:08;;;;;;;26.33;3.78;;;9.30;1.00;;;;;;20664364;28;20124;-40
2024/01/22 18:40:10;;;;;;;25.15;4.07;;;9.30;1.00;;;;;;20659090;28;20528;-39
2024/01/22 18:50:10;;;;;;;25.65;4.32;;;9.20;1.00;;;;;;20655658;28;20117;-40
2024/01/22 19:00:11;;;;;;;18.63;3.17;;;9.20;1.00;;;;;;20664678;28;20038;-40
2024/01/22 19:10:12;;;;;;;21.40;3.15;;;9.20;1.00;;;;;;20657965;28;20034;-40
2024/01/22 19:20:13;;;;;;;17.55;2.90;;;9.20;1.00;;;;;;20659273;28;20038;-40
2024/01/22 19:30:14;;;;;;;17.13;3.33;;;9.20;1.00;;;;;;20658136;28;20045;-40
2024/01/22 19:40:15;;;;;;;27.33;3.50;;;9.20;1.00;;;;;;20661259;28;20053;-40
2024/01/22 19:50:17;;;;;;;22.55;3.10;;;9.20;1.00;;;;;;20661748;28;20477;-39
2024/01/22 20:00:18;;;;;;;26.52;3.25;;;9.10;1.00;;;;;;20658385;28;20041;-40
2024/01/22 20:10:20;;;;;;;19.23;3.45;;;9.10;1.00;;;;;;20660788;28;20042;-39
2024/01/22 20:20:21;;;;;;;12.55;2.42;;;9.20;1.00;;;;;;20654405;28;20034;-39
2024/01/22 20:30:22;;;;;;;2.40;0.35;;;9.20;1.00;;;;;;20667856;28;20038;-39
2024/01/22 20:40:22;;;;;;;7.77;1.23;;;8.30;1.00;;;;;;20662521;28;20881;-40
2024/01/22 20:50:23;;;;;;;3.65;0.70;;;7.50;1.00;;;;;;20666489;28;20461;-40
2024/01/22 21:00:26;;;;;;;7.93;1.20;;;7.10;15.40;;;;;;20664842;28;20042;-40
2024/01/22 21:10:26;;;;;;;19.77;2.83;;;7.00;15.90;;;;;;20661277;28;20073;-39
2024/01/22 21:20:27;;;;;;;27.38;4.30;;;7.20;24.90;;;;;;20659123;28;20133;-39
2024/01/22 21:30:27;;;;;;;26.17;3.17;;;7.60;28.40;;;;;;20664132;28;20740;-39
2024/01/22 21:40:28;;;;;;;33.10;4.50;;;7.80;21.70;;;;;;20659960;28;20581;-39
2024/01/22 21:50:29;;;;;;;26.30;3.20;;;7.90;11.90;;;;;;20660973;28;20500;-39
2024/01/22 22:00:30;;;;;;;18.15;2.78;;;8.00;4.10;;;;;;20669968;28;20042;-39
2024/01/22 22:10:32;;;;;;;24.30;3.00;;;7.90;4.50;;;;;;20677418;28;20065;-39
2024/01/22 22:20:33;;;;;;;19.38;2.50;;;8.00;1.10;;;;;;20681630;28;20034;-39
2024/01/22 22:30:33;;;;;;;16.05;2.35;;;8.10;1.00;;;;;;20683848;28;20092;-39
2024/01/22 22:40:34;;;;;;;20.63;2.27;;;8.10;1.00;;;;;;20687456;28;20430;-39
2024/01/22 22:50:35;;;;;;;17.67;2.30;;;8.10;1.00;;;;;;20679127;28;20469;-39
2024/01/22 23:00:35;;;;;;;15.95;2.22;;;8.10;1.00;;;;;;20683947;28;20045;-39
2024/01/22 23:10:36;;;;;;;14.73;2.15;;;8.10;1.00;;;;;;20669318;28;20038;-39
2024/01/22 23:20:37;;;;;;;15.10;1.85;;;8.20;1.00;;;;;;20669877;28;20050;-39
2024/01/22 23:30:37;;;;;;;13.38;1.90;;;8.10;1.00;;;;;;20665836;28;20038;-39
2024/01/22 23:40:38;;;;;;;19.37;3.83;;;8.20;1.00;;;;;;20673930;28;20485;-39
2024/01/22 23:50:39;;;;;;;17.17;2.37;;;8.30;1.00;;;;;;20668874;28;20487;-38
